Time;durP1;ratioP1;P1;durP2;ratioP2;P2;SDS_P1;SDS_P2;PMS_P1;PMS_P2;Temp;Humidity;BMP_temperature;BMP_pressure;BME280_temperature;BME280_humidity;BME280_pressure;Samples;Min_cycle;Max_cycle;Signal;HPM_P1;HPM_P2
2022/06/23 00:00:27;;;;;;;5.40;4.33;;;13.90;99.90;;;;;;5038203;28;20045;-76
2022/06/23 00:02:54;;;;;;;7.43;4.40;;;13.90;99.90;;;;;;5033962;28;20048;-76
2022/06/23 00:05:24;;;;;;;5.07;3.47;;;13.90;99.90;;;;;;5034482;28;20045;-75
2022/06/23 00:07:54;;;;;;;5.30;3.77;;;13.80;99.90;;;;;;5049353;28;20037;-76
2022/06/23 00:10:24;;;;;;;7.23;4.50;;;13.80;99.90;;;;;;5049331;28;20513;-76
2022/06/23 00:12:51;;;;;;;7.70;5.10;;;13.70;99.90;;;;;;5054213;28;20064;-77
2022/06/23 00:15:25;;;;;;;8.00;5.50;;;13.70;99.90;;;;;;5039714;28;20310;-76
2022/06/23 00:17:56;;;;;;;;;;;13.70;99.90;;;;;;5053605;28;20506;-77
2022/06/23 00:20:26;;;;;;;6.40;5.00;;;13.60;99.90;;;;;;5062923;28;19970;-76
2022/06/23 00:22:58;;;;;;;8.13;5.67;;;13.60;99.90;;;;;;5051708;28;20040;-77
2022/06/23 00:25:34;;;;;;;8.47;5.33;;;13.60;99.90;;;;;;5048621;28;20055;-77
2022/06/23 00:28:01;;;;;;;7.07;6.07;;;13.60;99.90;;;;;;5031702;28;20095;-77
2022/06/23 00:30:29;;;;;;;7.70;5.07;;;13.60;99.90;;;;;;5034739;28;20048;-77
2022/06/23 00:32:56;;;;;;;8.53;6.13;;;13.50;99.90;;;;;;5038619;28;20131;-75
2022/06/23 00:35:22;;;;;;;6.17;5.53;;;13.50;99.90;;;;;;5053874;28;20045;-75
2022/06/23 00:37:49;;;;;;;6.87;5.00;;;13.50;99.90;;;;;;5051879;28;20098;-77
2022/06/23 00:40:20;;;;;;;6.87;5.40;;;13.50;99.90;;;;;;5051398;28;20071;-76
2022/06/23 00:42:51;;;;;;;7.57;5.40;;;13.50;99.90;;;;;;5019403;28;20045;-75
2022/06/23 00:45:31;;;;;;;5.93;4.73;;;13.50;99.90;;;;;;5031845;28;20052;-77
2022/06/23 00:48:04;;;;;;;8.60;5.40;;;13.40;99.90;;;;;;5027526;28;20076;-76
2022/06/23 00:50:35;;;;;;;6.25;5.03;;;13.40;99.90;;;;;;5031159;28;20052;-75
2022/06/23 00:53:20;;;;;;;7.30;6.40;;;13.40;99.90;;;;;;5044020;28;20068;-76
2022/06/23 00:55:55;;;;;;;7.03;5.50;;;13.30;99.90;;;;;;5034584;28;20041;-77
2022/06/23 00:58:35;;;;;;;10.87;6.77;;;13.30;99.90;;;;;;5046238;28;20059;-76
2022/06/23 01:01:08;;;;;;;7.00;5.87;;;13.30;99.90;;;;;;5049651;28;20044;-75
2022/06/23 01:03:49;;;;;;;6.60;5.47;;;13.30;99.90;;;;;;5028069;28;20370;-75
2022/06/23 01:06:23;;;;;;;6.87;5.80;;;13.30;99.90;;;;;;5047993;28;20056;-75
2022/06/23 01:08:54;;;;;;;7.73;6.13;;;13.30;99.90;;;;;;5045561;28;20412;-76
2022/06/23 01:11:26;;;;;;;7.47;5.80;;;13.30;99.90;;;;;;5039736;28;20045;-76
2022/06/23 01:14:03;;;;;;;7.37;6.27;;;13.30;99.90;;;;;;5055195;28;20067;-76
2022/06/23 01:16:33;;;;;;;7.17;5.83;;;13.30;99.90;;;;;;5027813;28;20411;-76
2022/06/23 01:19:13;;;;;;;7.50;5.97;;;13.30;99.90;;;;;;5037441;28;20055;-76
2022/06/23 01:21:44;;;;;;;8.13;6.50;;;13.20;99.90;;;;;;5051748;28;20040;-76
2022/06/23 01:24:24;;;;;;;8.87;7.03;;;13.20;99.90;;;;;;5049724;28;20068;-74
2022/06/23 01:27:10;;;;;;;8.57;7.10;;;13.20;99.90;;;;;;5026916;28;20052;-74
2022/06/23 01:29:42;;;;;;;9.77;7.67;;;13.20;99.90;;;;;;5045069;28;20052;-74
2022/06/23 01:32:17;;;;;;;9.00;7.90;;;13.20;99.90;;;;;;5041653;28;20048;-74
2022/06/23 01:34:48;;;;;;;9.03;8.00;;;13.20;99.90;;;;;;5040148;28;20501;-74
2022/06/23 01:37:17;;;;;;;11.03;8.70;;;13.20;99.90;;;;;;5041789;28;20056;-74
2022/06/23 01:39:47;;;;;;;10.30;7.60;;;13.30;99.90;;;;;;5055046;28;20044;-74
2022/06/23 01:42:22;;;;;;;10.07;8.43;;;13.30;99.90;;;;;;5036582;28;20045;-74
2022/06/23 01:44:57;;;;;;;8.63;7.73;;;13.30;99.90;;;;;;5036689;28;20064;-74
2022/06/23 01:47:30;;;;;;;9.20;7.87;;;13.30;99.90;;;;;;5041324;28;20067;-75
2022/06/23 01:50:04;;;;;;;9.00;7.83;;;13.30;99.90;;;;;;5051241;28;20453;-75
2022/06/23 01:52:29;;;;;;;;;;;13.30;99.90;;;;;;5025966;28;20086;-75
2022/06/23 01:55:02;;;;;;;13.53;10.00;;;13.20;99.90;;;;;;5054337;28;19951;-76
2022/06/23 01:57:34;;;;;;;10.20;8.70;;;13.20;99.90;;;;;;5050678;28;20136;-76
2022/06/23 02:00:10;;;;;;;9.33;7.33;;;13.20;99.90;;;;;;5045570;28;20110;-76
2022/06/23 02:02:52;;;;;;;8.73;7.80;;;13.20;99.90;;;;;;5047440;28;20051;-76
2022/06/23 02:05:28;;;;;;;11.93;9.67;;;13.20;99.90;;;;;;5048960;28;20273;-75
2022/06/23 02:08:00;;;;;;;10.33;8.77;;;13.10;99.90;;;;;;5043455;28;20049;-76
2022/06/23 02:10:31;;;;;;;13.17;7.83;;;13.10;99.90;;;;;;5056368;28;20055;-76
2022/06/23 02:13:07;;;;;;;10.63;8.80;;;13.10;99.90;;;;;;5054377;28;20070;-75
2022/06/23 02:15:46;;;;;;;10.53;7.93;;;13.10;99.90;;;;;;5040868;28;20044;-74
2022/06/23 02:18:17;;;;;;;11.30;8.47;;;13.10;99.90;;;;;;5032483;28;20102;-75
2022/06/23 02:20:52;;;;;;;8.87;7.40;;;13.10;99.90;;;;;;5054322;28;20568;-77
2022/06/23 02:23:23;;;;;;;9.90;8.47;;;13.10;99.90;;;;;;5054759;28;20041;-77
2022/06/23 02:25:56;;;;;;;11.57;9.80;;;13.10;99.90;;;;;;5037468;28;20044;-77
2022/06/23 02:28:34;;;;;;;15.00;10.53;;;13.00;99.90;;;;;;5043016;28;20068;-74
2022/06/23 02:31:11;;;;;;;14.00;10.97;;;13.00;99.90;;;;;;5040883;28;20064;-75
2022/06/23 02:33:41;;;;;;;12.83;10.60;;;13.10;99.90;;;;;;5055741;28;20044;-76
2022/06/23 02:36:20;;;;;;;17.17;13.00;;;13.10;99.90;;;;;;5038052;28;20044;-76
2022/06/23 02:38:50;;;;;;;13.67;10.93;;;13.10;99.90;;;;;;5071595;28;20055;-76
2022/06/23 02:41:18;;;;;;;21.77;12.93;;;13.10;99.90;;;;;;5043382;28;20053;-76
2022/06/23 02:43:47;;;;;;;14.57;10.40;;;13.10;99.90;;;;;;5036847;28;20151;-75
2022/06/23 02:46:36;;;;;;;14.80;11.40;;;13.10;99.90;;;;;;5041662;28;20275;-75
2022/06/23 02:49:34;;;;;;;15.50;11.67;;;13.10;99.90;;;;;;5041828;28;20079;-75
2022/06/23 02:52:35;;;;;;;17.57;12.13;;;13.00;99.90;;;;;;5026069;28;20051;-76
2022/06/23 02:55:32;;;;;;;15.63;11.77;;;13.10;99.90;;;;;;5044147;28;20086;-76
2022/06/23 02:58:04;;;;;;;13.13;9.60;;;13.00;99.90;;;;;;5051104;28;20155;-76
2022/06/23 03:00:34;;;;;;;15.03;10.63;;;13.00;99.90;;;;;;5037841;28;20392;-77
2022/06/23 03:03:08;;;;;;;12.27;9.57;;;12.90;99.90;;;;;;5051204;28;20063;-77
2022/06/23 03:05:44;;;;;;;14.00;10.33;;;12.90;99.90;;;;;;5047373;28;20090;-77
2022/06/23 03:08:19;;;;;;;13.80;10.27;;;12.90;99.90;;;;;;5043841;28;20040;-77
2022/06/23 03:10:52;;;;;;;12.03;9.77;;;12.90;99.90;;;;;;5050691;28;20056;-77
2022/06/23 03:13:26;;;;;;;10.43;8.82;;;12.90;99.90;;;;;;5060680;28;20048;-77
2022/06/23 03:15:58;;;;;;;12.77;9.43;;;12.80;99.90;;;;;;5025883;28;20541;-76
2022/06/23 03:18:30;;;;;;;12.03;9.97;;;12.80;99.90;;;;;;5027379;28;20098;-76
2022/06/23 03:21:00;;;;;;;13.83;10.50;;;12.80;99.90;;;;;;5040748;28;20053;-76
2022/06/23 03:23:32;;;;;;;14.20;9.50;;;12.80;99.90;;;;;;5034607;28;20045;-76
2022/06/23 03:26:08;;;;;;;8.83;7.80;;;12.80;99.90;;;;;;5046755;28;20066;-77
2022/06/23 03:28:41;;;;;;;10.83;8.73;;;12.80;99.90;;;;;;5046633;28;20561;-77
2022/06/23 03:31:16;;;;;;;15.10;10.83;;;12.80;99.90;;;;;;5050220;28;20127;-77
2022/06/23 03:33:48;;;;;;;14.20;10.30;;;12.80;99.90;;;;;;5050659;28;20099;-77
2022/06/23 03:36:19;;;;;;;15.43;10.70;;;12.70;99.90;;;;;;5052927;28;20093;-77
2022/06/23 03:41:51;;;;;;;19.23;12.70;;;12.80;99.90;;;;;;5056850;28;20152;-77
2022/06/23 03:44:21;;;;;;;18.13;12.27;;;12.80;99.90;;;;;;5034575;28;20056;-76
2022/06/23 03:46:56;;;;;;;20.13;13.03;;;12.70;99.90;;;;;;5037827;28;20498;-76
2022/06/23 03:49:37;;;;;;;16.13;11.13;;;12.80;99.90;;;;;;5037766;28;20041;-76
2022/06/23 03:52:11;;;;;;;19.43;12.93;;;12.80;99.90;;;;;;5052805;28;20048;-76
2022/06/23 03:54:46;;;;;;;18.17;11.73;;;12.80;99.90;;;;;;5047099;28;20052;-77
2022/06/23 03:57:18;;;;;;;12.27;9.50;;;12.80;99.90;;;;;;5054647;28;20506;-77
2022/06/23 03:59:59;;;;;;;21.43;13.60;;;12.80;99.90;;;;;;5015862;28;20054;-76
2022/06/23 04:02:30;;;;;;;16.20;11.63;;;12.80;99.90;;;;;;5056197;28;20047;-76
2022/06/23 04:05:08;;;;;;;20.63;13.40;;;12.80;99.90;;;;;;5053913;28;20049;-76
2022/06/23 04:07:42;;;;;;;15.47;11.43;;;12.90;99.90;;;;;;5021106;28;20053;-75
2022/06/23 04:10:11;;;;;;;22.23;12.75;;;12.80;99.90;;;;;;5033436;28;20110;-75
2022/06/23 04:12:44;;;;;;;18.93;12.30;;;12.90;99.90;;;;;;5030767;28;20057;-76
2022/06/23 04:15:17;;;;;;;16.20;11.60;;;12.90;99.90;;;;;;5055520;28;20051;-76
2022/06/23 04:17:46;;;;;;;17.23;11.65;;;13.00;99.90;;;;;;5048597;28;20044;-74
2022/06/23 04:20:18;;;;;;;15.60;11.07;;;13.00;99.90;;;;;;5042728;28;20487;-74
2022/06/23 04:22:48;;;;;;;15.30;10.33;;;13.00;99.90;;;;;;5052833;28;20411;-77
2022/06/23 04:25:19;;;;;;;13.27;10.00;;;13.10;99.90;;;;;;5053343;28;20049;-76
2022/06/23 04:27:48;;;;;;;17.70;11.50;;;13.10;99.90;;;;;;5028535;28;20056;-76
2022/06/23 04:30:21;;;;;;;15.37;11.40;;;13.10;99.90;;;;;;5044476;28;20045;-76
2022/06/23 04:32:49;;;;;;;19.08;11.50;;;13.10;99.90;;;;;;5050647;28;20548;-77
2022/06/23 04:35:20;;;;;;;13.80;11.10;;;13.20;99.90;;;;;;5043552;28;20048;-77
2022/06/23 04:37:54;;;;;;;17.00;12.30;;;13.20;99.90;;;;;;5057091;28;20060;-76
2022/06/23 04:40:23;;;;;;;15.50;11.27;;;13.20;99.90;;;;;;5013250;28;20047;-76
2022/06/23 04:42:56;;;;;;;16.30;11.27;;;13.20;99.90;;;;;;5033524;28;20047;-77
2022/06/23 04:45:32;;;;;;;17.65;12.63;;;13.30;99.90;;;;;;5034097;28;20062;-77
2022/06/23 04:48:00;;;;;;;14.93;11.83;;;13.30;99.90;;;;;;5043113;28;20406;-76
2022/06/23 04:50:42;;;;;;;12.97;11.47;;;13.40;99.90;;;;;;5042723;28;20045;-75
2022/06/23 04:53:18;;;;;;;15.17;11.70;;;13.50;99.90;;;;;;5035058;28;20040;-76
2022/06/23 04:55:53;;;;;;;17.13;12.63;;;13.50;99.90;;;;;;5053010;28;20114;-77
2022/06/23 04:58:22;;;;;;;;;;;13.60;99.90;;;;;;5035039;28;20076;-77
2022/06/23 05:00:50;;;;;;;20.17;13.67;;;13.70;99.90;;;;;;5040569;28;19923;-77
2022/06/23 05:03:20;;;;;;;16.23;12.97;;;13.80;99.90;;;;;;5041720;28;20041;-77
2022/06/23 05:05:58;;;;;;;16.63;12.87;;;13.90;99.90;;;;;;5029219;28;20047;-76
2022/06/23 05:08:28;;;;;;;12.10;10.57;;;14.10;99.90;;;;;;5039194;28;20098;-77
2022/06/23 05:11:11;;;;;;;14.80;11.87;;;14.20;99.90;;;;;;5052289;28;20540;-76
2022/06/23 05:13:44;;;;;;;13.00;10.30;;;14.30;99.90;;;;;;5052248;28;20135;-77
2022/06/23 05:16:13;;;;;;;16.15;11.43;;;14.40;99.90;;;;;;5045780;28;20577;-77
2022/06/23 05:18:44;;;;;;;17.33;12.00;;;14.40;99.90;;;;;;5019902;28;20568;-77
2022/06/23 05:21:17;;;;;;;13.50;10.80;;;14.50;99.90;;;;;;5050674;28;20044;-77
2022/06/23 05:23:49;;;;;;;15.07;11.60;;;14.50;99.90;;;;;;5048581;28;20049;-76
2022/06/23 05:26:24;;;;;;;12.10;10.67;;;14.60;99.90;;;;;;5034460;28;20068;-77
2022/06/23 05:28:54;;;;;;;13.53;12.13;;;14.70;99.90;;;;;;5043155;28;20041;-78
2022/06/23 05:31:22;;;;;;;13.37;11.50;;;14.70;99.90;;;;;;5045671;28;20075;-77
2022/06/23 05:33:53;;;;;;;14.77;11.63;;;14.90;99.90;;;;;;5053309;28;20114;-77
2022/06/23 05:36:24;;;;;;;11.90;10.50;;;15.50;99.90;;;;;;5051034;28;20048;-78
2022/06/23 05:38:53;;;;;;;11.83;9.97;;;16.30;99.90;;;;;;5031519;28;20045;-77
2022/06/23 05:41:26;;;;;;;13.57;8.30;;;16.60;99.90;;;;;;5042943;28;20040;-77
2022/06/23 05:43:54;;;;;;;10.70;9.53;;;16.60;99.90;;;;;;5028230;28;20070;-77
2022/06/23 05:46:22;;;;;;;11.87;9.63;;;16.50;99.90;;;;;;5031348;28;20095;-77
2022/06/23 05:48:57;;;;;;;13.47;10.00;;;16.60;99.90;;;;;;5046493;28;20051;-77
2022/06/23 05:51:33;;;;;;;14.67;8.97;;;16.60;99.90;;;;;;5054006;28;20070;-77
2022/06/23 05:54:06;;;;;;;12.87;9.33;;;16.50;99.90;;;;;;5029484;28;20122;-78
2022/06/23 05:56:38;;;;;;;10.95;9.07;;;16.50;99.90;;;;;;5065180;28;20155;-78
2022/06/23 05:59:13;;;;;;;12.10;9.83;;;16.60;99.90;;;;;;5035668;28;20052;-76
2022/06/23 06:01:45;;;;;;;11.50;9.63;;;16.60;99.90;;;;;;5053851;28;20115;-78
2022/06/23 06:04:17;;;;;;;13.43;9.67;;;16.60;99.90;;;;;;5037781;28;20057;-76
2022/06/23 06:06:45;;;;;;;9.33;8.33;;;16.70;99.90;;;;;;5054545;28;20042;-76
2022/06/23 06:11:59;;;;;;;11.67;8.80;;;16.90;99.90;;;;;;5055805;28;20055;-78
2022/06/23 06:14:28;;;;;;;10.93;8.70;;;16.90;99.90;;;;;;5054067;28;20048;-78
2022/06/23 06:16:57;;;;;;;9.67;7.87;;;16.90;99.90;;;;;;5036240;28;20044;-78
2022/06/23 06:19:25;;;;;;;10.50;8.20;;;16.90;99.90;;;;;;5051127;28;20051;-78
2022/06/23 06:21:55;;;;;;;10.10;8.30;;;17.10;99.90;;;;;;5050800;28;20048;-78
2022/06/23 06:24:25;;;;;;;17.13;7.33;;;17.20;99.90;;;;;;5051369;28;20060;-78
2022/06/23 06:26:53;;;;;;;10.03;7.83;;;17.20;99.90;;;;;;5060599;28;20052;-78
2022/06/23 06:29:22;;;;;;;13.57;7.77;;;17.10;99.90;;;;;;5036041;28;20584;-78
2022/06/23 06:31:52;;;;;;;13.87;8.40;;;17.20;99.90;;;;;;5036452;28;20556;-78
2022/06/23 06:34:22;;;;;;;12.30;8.23;;;17.20;99.90;;;;;;5031550;28;20049;-79
2022/06/23 06:36:50;;;;;;;9.27;7.87;;;17.20;99.90;;;;;;5032375;28;20058;-79
2022/06/23 06:39:23;;;;;;;10.67;7.60;;;17.30;99.90;;;;;;5046923;28;20110;-79
2022/06/23 06:41:53;;;;;;;11.30;7.77;;;17.30;99.90;;;;;;5030198;28;20052;-79
2022/06/23 06:44:22;;;;;;;;;;;17.40;99.90;;;;;;5048364;28;20116;-77
2022/06/23 06:46:48;;;;;;;11.10;7.70;;;17.50;99.90;;;;;;5032136;28;20003;-77
2022/06/23 06:49:18;;;;;;;10.43;7.90;;;17.50;99.90;;;;;;5048162;28;21410;-78
2022/06/23 06:51:44;;;;;;;10.30;7.50;;;17.60;99.90;;;;;;5011076;28;20037;-77
2022/06/23 06:54:15;;;;;;;11.63;7.13;;;17.60;99.90;;;;;;5056312;28;20043;-77
2022/06/23 06:56:45;;;;;;;12.10;6.60;;;17.70;99.90;;;;;;5033647;28;20037;-78
2022/06/23 06:59:15;;;;;;;12.50;7.10;;;17.70;99.90;;;;;;5045412;28;20070;-78
2022/06/23 07:01:44;;;;;;;11.57;6.60;;;17.80;99.90;;;;;;5046503;28;20737;-78
2022/06/23 07:04:15;;;;;;;8.43;6.80;;;17.90;99.90;;;;;;5045781;28;20036;-78
2022/06/23 07:06:44;;;;;;;15.17;6.70;;;18.10;99.90;;;;;;5047124;28;20046;-79
2022/06/23 07:09:16;;;;;;;10.37;6.30;;;18.30;99.90;;;;;;5029763;28;20064;-78
2022/06/23 07:11:47;;;;;;;8.27;6.10;;;18.50;99.90;;;;;;5049097;28;20056;-78
2022/06/23 07:14:21;;;;;;;8.07;5.30;;;18.80;99.90;;;;;;5033181;28;20128;-78
2022/06/23 07:16:51;;;;;;;9.02;5.80;;;19.10;99.90;;;;;;5047793;28;20051;-78
2022/06/23 07:19:25;;;;;;;6.60;5.47;;;19.30;99.90;;;;;;5050217;28;20490;-77
2022/06/23 07:21:55;;;;;;;9.90;5.07;;;19.40;99.90;;;;;;5045412;28;20044;-79
2022/06/23 07:24:25;;;;;;;9.50;5.40;;;19.40;99.90;;;;;;5048937;28;20040;-79
2022/06/23 07:26:58;;;;;;;7.90;5.43;;;19.30;99.90;;;;;;5063873;28;20052;-78
2022/06/23 07:29:33;;;;;;;9.07;5.10;;;19.40;99.90;;;;;;5048215;28;20506;-77
2022/06/23 07:32:07;;;;;;;9.70;4.70;;;19.40;99.90;;;;;;5048081;28;20418;-78
2022/06/23 07:34:37;;;;;;;9.60;4.73;;;19.50;99.90;;;;;;5033707;28;20036;-76
2022/06/23 07:37:13;;;;;;;6.93;4.67;;;19.60;99.90;;;;;;5047467;28;20550;-78
2022/06/23 07:39:41;;;;;;;8.40;4.77;;;19.70;99.90;;;;;;5046249;28;20040;-76
2022/06/23 07:42:13;;;;;;;7.00;4.77;;;19.70;99.90;;;;;;5046810;28;20055;-76
2022/06/23 07:44:44;;;;;;;6.83;4.50;;;19.80;99.90;;;;;;5043492;28;20032;-78
2022/06/23 07:47:10;;;;;;;8.20;4.73;;;19.90;99.90;;;;;;5044657;28;20052;-77
2022/06/23 07:49:36;;;;;;;9.40;4.87;;;20.00;99.90;;;;;;5061734;28;20094;-74
2022/06/23 07:52:03;;;;;;;8.97;4.73;;;20.00;99.90;;;;;;5060746;28;20461;-77
2022/06/23 07:54:30;;;;;;;9.27;4.73;;;20.10;99.90;;;;;;5053211;28;20044;-76
2022/06/23 07:56:56;;;;;;;10.03;4.63;;;20.20;99.90;;;;;;5044229;28;20056;-76
2022/06/23 07:59:29;;;;;;;6.53;4.00;;;20.30;99.90;;;;;;5042715;28;20375;-77
2022/06/23 08:01:58;;;;;;;8.57;4.07;;;20.40;99.90;;;;;;5028989;28;20055;-76
2022/06/23 08:04:30;;;;;;;5.63;3.93;;;20.50;99.90;;;;;;5045340;28;20052;-77
2022/06/23 08:06:59;;;;;;;8.77;4.07;;;20.50;99.90;;;;;;5027323;28;20044;-77
2022/06/23 08:09:29;;;;;;;7.97;4.00;;;20.60;99.90;;;;;;5044148;28;20044;-79
2022/06/23 08:12:57;;;;;;;6.13;3.73;;;20.70;99.90;;;;;;5048608;28;20098;-78
2022/06/23 08:17:48;;;;;;;7.13;4.00;;;20.90;99.90;;;;;;4992231;28;20049;-77
2022/06/23 08:20:19;;;;;;;6.70;3.87;;;21.00;99.90;;;;;;5044833;28;20580;-75
2022/06/23 08:22:47;;;;;;;7.07;4.00;;;21.10;99.90;;;;;;5012850;28;20127;-76
2022/06/23 08:25:15;;;;;;;6.33;4.00;;;21.30;99.90;;;;;;5043335;28;20040;-77
2022/06/23 08:27:45;;;;;;;6.70;3.70;;;21.40;99.90;;;;;;5044950;28;20564;-78
2022/06/23 08:30:15;;;;;;;11.23;4.77;;;21.50;99.90;;;;;;5047202;28;20037;-76
2022/06/23 08:32:44;;;;;;;7.37;4.03;;;21.60;99.90;;;;;;5063386;28;20072;-75
2022/06/23 08:35:15;;;;;;;8.63;3.97;;;21.70;99.90;;;;;;5045407;28;20053;-75
2022/06/23 08:37:46;;;;;;;8.60;3.60;;;21.80;99.90;;;;;;5038657;28;20414;-77
2022/06/23 08:40:21;;;;;;;8.80;3.77;;;21.90;99.90;;;;;;5043953;28;20450;-75
2022/06/23 08:42:56;;;;;;;6.97;4.33;;;22.10;99.90;;;;;;5028232;28;20119;-78
2022/06/23 08:45:32;;;;;;;7.07;4.17;;;22.20;99.90;;;;;;5045376;28;20059;-78
2022/06/23 08:48:01;;;;;;;8.45;3.83;;;22.30;99.90;;;;;;5046215;28;20424;-75
2022/06/23 08:50:35;;;;;;;6.33;3.53;;;22.40;99.90;;;;;;5047948;28;20068;-76
2022/06/23 08:53:06;;;;;;;6.90;3.53;;;22.50;99.90;;;;;;5024445;28;20123;-76
2022/06/23 08:55:40;;;;;;;9.53;3.73;;;22.60;99.90;;;;;;5035537;28;20528;-76
2022/06/23 08:58:13;;;;;;;4.82;3.00;;;22.70;99.90;;;;;;5025149;28;20048;-79
2022/06/23 09:00:46;;;;;;;9.38;3.30;;;22.90;99.90;;;;;;5047454;28;20047;-76
2022/06/23 09:03:18;;;;;;;10.02;3.40;;;23.00;99.90;;;;;;5045261;28;20056;-77
2022/06/23 09:05:53;;;;;;;5.40;3.40;;;23.10;99.90;;;;;;5045031;28;20071;-78
2022/06/23 09:08:24;;;;;;;7.32;2.97;;;23.30;99.90;;;;;;5045421;28;20819;-78
2022/06/23 09:10:58;;;;;;;6.00;2.95;;;23.40;99.90;;;;;;5048548;28;20055;-75
2022/06/23 09:13:38;;;;;;;6.05;2.85;;;23.60;99.90;;;;;;5042681;28;20568;-77
2022/06/23 09:16:40;;;;;;;6.15;3.30;;;23.70;99.90;;;;;;5029556;28;20052;-78
2022/06/23 09:19:32;;;;;;;6.60;3.08;;;23.90;99.90;;;;;;5056654;28;20063;-77
2022/06/23 09:22:30;;;;;;;6.68;2.92;;;24.10;99.90;;;;;;5039480;28;20041;-78
2022/06/23 09:25:11;;;;;;;5.95;3.20;;;24.30;99.90;;;;;;4995270;28;20379;-77
2022/06/23 09:27:53;;;;;;;6.18;2.90;;;24.50;99.90;;;;;;5027470;28;20044;-78
2022/06/23 09:30:32;;;;;;;7.60;3.00;;;24.70;99.90;;;;;;5042073;28;20131;-77
2022/06/23 09:33:12;;;;;;;8.10;3.28;;;24.90;99.90;;;;;;5044803;28;20052;-78
2022/06/23 09:36:04;;;;;;;5.90;2.55;;;25.20;99.90;;;;;;5047078;28;20048;-78
2022/06/23 09:39:03;;;;;;;5.80;2.67;;;25.40;99.90;;;;;;5060897;28;20051;-78
2022/06/23 09:41:45;;;;;;;6.05;3.03;;;25.70;99.90;;;;;;5033843;28;20044;-79
2022/06/23 09:44:31;;;;;;;6.57;2.80;;;25.90;99.90;;;;;;5029808;28;20051;-77
2022/06/23 09:47:45;;;;;;;4.93;2.50;;;26.20;99.20;;;;;;5027336;28;20123;-77
2022/06/23 09:50:40;;;;;;;6.68;2.40;;;26.50;98.00;;;;;;5032465;28;20628;-79
2022/06/23 09:53:42;;;;;;;7.75;2.88;;;26.90;98.50;;;;;;5036251;28;20053;-77
2022/06/23 09:56:34;;;;;;;5.68;2.13;;;27.10;96.30;;;;;;5034301;28;20638;-77
2022/06/23 09:59:36;;;;;;;5.60;2.22;;;27.30;94.10;;;;;;5031480;28;20044;-78
2022/06/23 10:02:13;;;;;;;3.97;2.25;;;27.50;93.10;;;;;;5012312;28;20414;-77
2022/06/23 10:04:54;;;;;;;4.03;2.25;;;27.90;95.10;;;;;;5031096;28;20037;-77
2022/06/23 10:07:36;;;;;;;4.68;2.10;;;28.20;92.80;;;;;;5029523;28;20052;-79
2022/06/23 10:10:11;;;;;;;4.30;2.20;;;28.50;90.90;;;;;;5045552;28;20060;-78
2022/06/23 10:13:03;;;;;;;4.78;2.15;;;28.60;90.60;;;;;;5043038;28;20032;-78
2022/06/23 10:15:46;;;;;;;7.03;2.78;;;28.80;91.00;;;;;;5031658;28;20139;-78
2022/06/23 10:18:37;;;;;;;9.25;2.30;;;29.00;90.60;;;;;;5044082;28;20448;-79
2022/06/23 10:21:16;;;;;;;4.18;2.20;;;29.30;91.50;;;;;;5030278;28;20498;-77
2022/06/23 10:24:13;;;;;;;3.05;2.03;;;29.50;87.90;;;;;;5057828;28;20664;-79
2022/06/23 10:26:59;;;;;;;6.53;2.00;;;29.60;82.70;;;;;;5026206;28;20045;-79
2022/06/23 10:29:45;;;;;;;2.90;1.90;;;29.70;85.60;;;;;;5047609;28;20048;-78
2022/06/23 10:32:31;;;;;;;7.60;2.53;;;29.90;80.60;;;;;;5040856;28;20052;-79
2022/06/23 10:35:13;;;;;;;3.55;2.10;;;30.00;81.40;;;;;;5050540;28;20040;-78
2022/06/23 10:38:05;;;;;;;6.70;2.10;;;30.30;81.20;;;;;;5047362;28;20041;-78
2022/06/23 10:40:49;;;;;;;7.90;2.25;;;30.50;81.30;;;;;;5040162;28;20041;-78
2022/06/23 10:43:34;;;;;;;4.80;2.30;;;30.60;77.20;;;;;;5065091;28;20041;-79
2022/06/23 10:46:06;;;;;;;7.70;2.40;;;30.80;80.40;;;;;;5047296;28;20502;-77
2022/06/23 10:49:16;;;;;;;4.65;2.08;;;31.00;77.30;;;;;;5010857;28;20064;-76
2022/06/23 10:52:13;;;;;;;4.72;2.00;;;31.10;79.00;;;;;;5063037;28;20044;-76
2022/06/23 10:54:59;;;;;;;6.43;2.55;;;31.20;80.70;;;;;;4997565;28;20481;-77
2022/06/23 10:58:10;;;;;;;6.90;2.10;;;31.30;81.20;;;;;;5015943;28;20048;-77
2022/06/23 11:00:44;;;;;;;6.13;1.85;;;31.50;71.70;;;;;;4929028;28;20059;-76
2022/06/23 11:03:38;;;;;;;5.20;1.67;;;31.40;71.50;;;;;;5044771;28;20049;-77
2022/06/23 11:06:41;;;;;;;5.80;2.10;;;31.40;72.40;;;;;;5045192;28;20044;-77
2022/06/23 11:09:25;;;;;;;3.55;2.17;;;31.60;70.50;;;;;;5042757;28;20397;-77
2022/06/23 11:12:09;;;;;;;3.60;1.85;;;31.80;70.50;;;;;;5027000;28;20032;-79
2022/06/23 11:14:44;;;;;;;2.65;1.85;;;31.80;68.50;;;;;;5034196;28;20517;-76
2022/06/23 11:17:21;;;;;;;5.28;2.20;;;31.80;70.80;;;;;;5046629;28;20048;-78
2022/06/23 11:20:02;;;;;;;4.40;1.88;;;32.00;70.90;;;;;;5046044;28;20106;-78
2022/06/23 11:22:37;;;;;;;4.18;1.70;;;32.00;65.20;;;;;;5042942;28;20060;-76
2022/06/23 11:25:19;;;;;;;5.22;2.05;;;32.20;65.60;;;;;;5033691;28;20044;-79
2022/06/23 11:27:53;;;;;;;5.95;1.70;;;32.30;64.10;;;;;;5043481;28;20051;-78
2022/06/23 11:30:25;;;;;;;4.18;1.70;;;32.30;65.10;;;;;;5011245;28;20064;-78
2022/06/23 11:33:11;;;;;;;6.05;2.22;;;32.50;62.00;;;;;;5042347;28;20074;-78
2022/06/23 11:36:05;;;;;;;4.05;1.75;;;32.60;59.60;;;;;;5027620;28;20060;-76
2022/06/23 11:38:49;;;;;;;4.63;1.70;;;32.60;57.40;;;;;;5030073;28;20049;-78
2022/06/23 11:41:31;;;;;;;4.65;2.00;;;32.60;59.40;;;;;;5043897;28;20049;-77
2022/06/23 11:44:12;;;;;;;5.55;1.70;;;32.80;57.50;;;;;;5027375;28;20480;-77
2022/06/23 11:46:44;;;;;;;5.00;1.60;;;32.90;58.20;;;;;;5059668;28;20044;-78
2022/06/23 11:49:25;;;;;;;2.95;1.50;;;33.10;59.50;;;;;;5026353;28;20522;-77
2022/06/23 11:52:01;;;;;;;3.15;1.63;;;33.20;55.70;;;;;;5044919;28;20329;-78
2022/06/23 11:54:40;;;;;;;5.05;1.98;;;33.20;57.10;;;;;;5013425;28;20052;-77
2022/06/23 11:57:29;;;;;;;4.25;1.70;;;33.40;55.60;;;;;;5045654;28;20052;-79
2022/06/23 12:00:04;;;;;;;6.18;1.70;;;33.40;54.00;;;;;;5018470;28;20095;-78
2022/06/23 12:02:50;;;;;;;4.27;1.80;;;33.40;54.00;;;;;;5044956;28;20052;-78
2022/06/23 12:05:29;;;;;;;7.15;1.65;;;33.40;52.40;;;;;;5046451;28;20456;-78
2022/06/23 12:08:13;;;;;;;2.55;1.42;;;33.60;52.60;;;;;;5047549;28;20072;-75
2022/06/23 12:10:40;;;;;;;4.28;1.45;;;33.60;52.40;;;;;;5045727;28;20491;-79
2022/06/23 12:13:06;;;;;;;3.45;1.63;;;33.50;49.40;;;;;;5046558;28;20044;-77
2022/06/23 12:15:34;;;;;;;4.68;1.70;;;33.20;48.00;;;;;;5041453;28;20494;-77
2022/06/23 12:18:08;;;;;;;4.90;1.55;;;33.10;48.40;;;;;;5028648;28;20513;-77
2022/06/23 12:20:43;;;;;;;5.28;1.60;;;33.20;47.40;;;;;;5027579;28;20048;-76
2022/06/23 12:23:16;;;;;;;3.22;1.52;;;33.20;47.10;;;;;;5041782;28;20063;-77
2022/06/23 12:25:50;;;;;;;4.55;1.90;;;33.20;49.00;;;;;;5045057;28;20044;-77
2022/06/23 12:28:24;;;;;;;6.93;1.70;;;33.30;48.00;;;;;;5046865;28;20052;-77
2022/06/23 12:30:54;;;;;;;2.72;1.60;;;33.30;47.10;;;;;;5042137;28;20051;-76
2022/06/23 12:33:27;;;;;;;3.25;2.13;;;33.20;46.10;;;;;;5044680;28;20037;-77
2022/06/23 12:36:01;;;;;;;3.00;1.60;;;33.30;48.40;;;;;;5042714;28;20047;-77
2022/06/23 12:38:31;;;;;;;3.20;1.60;;;33.50;47.40;;;;;;5045147;28;20139;-78
2022/06/23 12:41:01;;;;;;;3.38;2.00;;;33.50;48.00;;;;;;5044464;28;20072;-77
2022/06/23 12:43:35;;;;;;;5.22;1.80;;;33.60;47.00;;;;;;5043766;28;20074;-77
2022/06/23 12:46:15;;;;;;;3.33;1.60;;;33.60;45.60;;;;;;5042422;28;20044;-78
2022/06/23 12:49:10;;;;;;;5.68;1.90;;;33.60;44.80;;;;;;5027889;28;20044;-77
2022/06/23 12:51:45;;;;;;;3.38;2.00;;;33.50;45.10;;;;;;5045855;28;20056;-76
2022/06/23 12:54:37;;;;;;;4.03;1.60;;;33.50;44.70;;;;;;5041868;28;20041;-77
2022/06/23 12:57:16;;;;;;;4.00;1.58;;;33.60;46.80;;;;;;5045097;28;20055;-78
2022/06/23 12:59:48;;;;;;;8.43;1.52;;;33.60;45.00;;;;;;5028136;28;20108;-78
2022/06/23 13:02:21;;;;;;;4.72;1.70;;;33.60;45.40;;;;;;5037802;28;20048;-77
2022/06/23 13:04:53;;;;;;;5.97;2.00;;;33.40;44.10;;;;;;5028461;28;20040;-78
2022/06/23 13:07:26;;;;;;;5.10;1.80;;;33.20;44.70;;;;;;5045829;28;20529;-78
2022/06/23 13:09:58;;;;;;;3.63;1.33;;;33.30;45.30;;;;;;5049743;28;20131;-78
2022/06/23 13:12:31;;;;;;;6.63;2.10;;;33.40;45.40;;;;;;5063389;28;20086;-76
2022/06/23 13:15:02;;;;;;;8.75;1.95;;;33.60;44.80;;;;;;5048759;28;20120;-77
2022/06/23 13:17:37;;;;;;;5.45;1.75;;;33.60;44.10;;;;;;5066359;28;20040;-78
2022/06/23 13:20:19;;;;;;;3.05;1.60;;;33.40;43.50;;;;;;5047701;28;20055;-77
2022/06/23 13:22:56;;;;;;;4.07;1.98;;;33.40;42.80;;;;;;5048359;28;20543;-77
2022/06/23 13:25:25;;;;;;;3.40;1.70;;;33.40;42.30;;;;;;5031616;28;20075;-77
2022/06/23 13:27:54;;;;;;;4.40;1.70;;;33.30;43.60;;;;;;5033503;28;20402;-77
2022/06/23 13:30:23;;;;;;;2.10;1.50;;;33.30;43.20;;;;;;5050723;28;20080;-77
2022/06/23 13:33:01;;;;;;;2.92;1.80;;;33.30;42.50;;;;;;5027519;28;20044;-79